Weather History for KCVX - October, 2013

Change the Weather History Date:

Wednesday, October 2, 2013

  Actual Average (KPLN) Record (KPLN)
Temperature  
Mean Temperature 60 °F -  
Max Temperature 67 °F 63 °F - (-1)
Min Temperature 52 °F 41 °F - (-1)
Degree Days  
Heating Degree Days 6    
Growing Degree Days 10 (Base 50)    
Moisture  
Dew Point 50 °F    
Average Humidity 68    
Maximum Humidity 91    
Minimum Humidity 49    
Precipitation  
Precipitation 0.00 in - - ()
Sea Level Pressure  
Sea Level Pressure 30.05 in    
Wind  
Wind Speed 10 mph (West)    
Max Wind Speed 15 mph    
Max Gust Speed 21 mph    
Visibility 10 miles    
Events      
Averages and records for this station are not official NWS values.
T = Trace of Precipitation, MM = Missing Value Source: NWS Daily Summary

Daily Weather History Graph

Daily Weather History Graph

Search for Another Location

Airport or City:

Trip Planner

Search our weather history database for the weather conditions in past years. The results will help you decide how hot, cold, wet, or windy it might be!

Date:

Astronomy

Oct. 02, 2013 Rise Set
Actual Time 7:40 AM EDT 7:19 PM EDT
Civil Twilight 7:11 AM EDT 7:48 PM EDT
Nautical Twilight 6:37 AM EDT 8:22 PM EDT
Astronomical Twilight 6:02 AM EDT 8:57 PM EDT
Moon 5:07 AM EDT (10/2) 5:58 PM EDT (10/2)
Length of Visible Light 12h 37m
Length of Day
11h 38m
Waning Crescent, 6% of the Moon is Illuminated
Oct 2
Waning Crescent
Oct 4
New
Oct 11
First Quarter
Oct 18
Full
Oct 26
Last Quarter

Hourly Weather History & Observations

Time (EDT) Temp. Dew Point Humidity Pressure Visibility Wind Dir Wind Speed Gust Speed Precip Events Conditions
12:14 AM 65.5 °F 57.7 °F 76% 29.88 in 10.0 mi West 15.0 mph 20.7 mph N/A   Mostly Cloudy
12:35 AM 64.8 °F 56.7 °F 75% 29.89 in 10.0 mi West 12.7 mph - N/A   Scattered Clouds
12:54 AM 63.7 °F 55.8 °F 75% 29.89 in 10.0 mi WSW 11.5 mph - N/A   Scattered Clouds
1:15 AM 63.0 °F 55.8 °F 77% 29.91 in 10.0 mi West 11.5 mph - N/A   Clear
1:35 AM 62.4 °F 53.8 °F 73% 29.91 in 10.0 mi West 10.4 mph - N/A   Clear
1:54 AM 61.7 °F 53.1 °F 73% 29.92 in 10.0 mi West 10.4 mph - N/A   Clear
2:15 AM 60.8 °F 52.7 °F 75% 29.93 in 10.0 mi West 9.2 mph - N/A   Clear
2:35 AM 60.8 °F 52.2 °F 73% 29.94 in 10.0 mi West 11.5 mph - N/A   Clear
2:54 AM 61.2 °F 51.8 °F 71% 29.94 in 10.0 mi West 9.2 mph - N/A   Clear
3:15 AM 61.2 °F 51.4 °F 70% 29.94 in 10.0 mi WNW 12.7 mph - N/A   Clear
3:34 AM 61.7 °F 49.6 °F 65% 29.94 in 10.0 mi West 10.4 mph 20.7 mph N/A   Clear
3:54 AM 61.9 °F 48.9 °F 62% 29.95 in 10.0 mi West 11.5 mph 20.7 mph N/A   Clear
4:15 AM 61.7 °F 48.4 °F 62% 29.96 in 10.0 mi WNW 12.7 mph - N/A   Clear
4:34 AM 61.7 °F 47.5 °F 60% 29.97 in 10.0 mi West 13.8 mph - N/A   Clear
4:54 AM 61.3 °F 47.3 °F 60% 29.97 in 10.0 mi West 10.4 mph - N/A   Clear
5:14 AM 60.6 °F 48.2 °F 64% 29.98 in 10.0 mi West 9.2 mph - N/A   Clear
5:34 AM 59.5 °F 49.1 °F 68% 29.99 in 10.0 mi West 9.2 mph - N/A   Clear
5:55 AM 58.3 °F 50.0 °F 74% 30.00 in 10.0 mi West 8.1 mph - N/A   Clear
6:14 AM 58.5 °F 49.5 °F 72% 30.00 in 10.0 mi West 10.4 mph - N/A   Clear
6:34 AM 58.3 °F 49.3 °F 72% 30.00 in 10.0 mi West 9.2 mph - N/A   Clear
6:55 AM 59.5 °F 48.6 °F 67% 30.01 in 10.0 mi West 9.2 mph - N/A   Clear
7:14 AM 58.6 °F 49.1 °F 71% 30.02 in 10.0 mi West 10.4 mph - N/A   Clear
7:35 AM 58.6 °F 49.1 °F 71% 30.02 in 10.0 mi WNW 11.5 mph - N/A   Clear
7:55 AM 58.6 °F 49.5 °F 72% 30.03 in 10.0 mi WNW 10.4 mph - N/A   Clear
8:14 AM 59.2 °F 49.3 °F 70% 30.04 in 10.0 mi WNW 9.2 mph - N/A   Clear
8:35 AM 59.9 °F 50.2 °F 70% 30.05 in 10.0 mi West 9.2 mph - N/A   Clear
8:55 AM 60.8 °F 50.7 °F 69% 30.05 in 10.0 mi West 9.2 mph - N/A   Clear
9:14 AM 61.7 °F 50.5 °F 67% 30.06 in 10.0 mi West 9.2 mph - N/A   Clear
9:35 AM 62.6 °F 50.5 °F 65% 30.07 in 10.0 mi West 8.1 mph - N/A   Clear
9:54 AM 63.1 °F 50.0 °F 62% 30.07 in 10.0 mi West 10.4 mph - N/A   Clear
10:14 AM 63.7 °F 50.2 °F 61% 30.08 in 10.0 mi West 11.5 mph - N/A   Clear
10:35 AM 64.4 °F 49.6 °F 59% 30.09 in 10.0 mi West 11.5 mph - N/A   Clear
10:54 AM 64.8 °F 50.2 °F 59% 30.09 in 10.0 mi West 10.4 mph - N/A   Clear
11:14 AM 65.3 °F 50.2 °F 58% 30.10 in 10.0 mi West 11.5 mph - N/A   Clear
11:35 AM 65.5 °F 51.4 °F 60% 30.10 in 10.0 mi West 11.5 mph - N/A   Clear
11:54 AM 65.5 °F 51.8 °F 61% 30.10 in 10.0 mi West 10.4 mph - N/A   Clear
12:15 PM 65.7 °F 51.6 °F 60% 30.10 in 10.0 mi West 11.5 mph - N/A   Clear
12:35 PM 65.7 °F 52.3 °F 62% 30.11 in 10.0 mi West 9.2 mph - N/A   Clear
12:54 PM 65.7 °F 51.3 °F 60% 30.10 in 10.0 mi West 11.5 mph - N/A   Clear
1:15 PM 66.6 °F 51.6 °F 59% 30.10 in 10.0 mi West 11.5 mph - N/A   Clear
1:35 PM 66.6 °F 51.4 °F 58% 30.10 in 10.0 mi WSW 9.2 mph - N/A   Clear
1:54 PM 66.6 °F 50.0 °F 55% 30.10 in 10.0 mi West 10.4 mph - N/A   Clear
2:15 PM 66.9 °F 48.0 °F 51% 30.10 in 10.0 mi WSW 12.7 mph - N/A   Clear
2:34 PM 67.1 °F 50.4 °F 55% 30.10 in 10.0 mi West 12.7 mph - N/A   Clear
2:54 PM 66.6 °F 48.2 °F 52% 30.10 in 10.0 mi WSW 10.4 mph - N/A   Clear
3:15 PM 66.9 °F 49.5 °F 53% 30.10 in 10.0 mi West 10.4 mph - N/A   Clear
3:34 PM 67.1 °F 49.3 °F 53% 30.10 in 10.0 mi West 11.5 mph - N/A   Clear
3:54 PM 67.3 °F 48.4 °F 51% 30.10 in 10.0 mi West 12.7 mph - N/A   Clear
4:15 PM 66.7 °F 46.9 °F 49% 30.10 in 10.0 mi West 10.4 mph - N/A   Clear
4:34 PM 66.6 °F 46.9 °F 49% 30.10 in 10.0 mi West 9.2 mph - N/A   Clear
4:54 PM 66.6 °F 48.4 °F 52% 30.10 in 10.0 mi West 8.1 mph - N/A   Clear
5:15 PM 66.2 °F 47.3 °F 51% 30.09 in 10.0 mi WSW 6.9 mph - N/A   Clear
5:34 PM 66.0 °F 46.9 °F 50% 30.09 in 10.0 mi West 9.2 mph - N/A   Clear
5:55 PM 65.5 °F 47.3 °F 52% 30.09 in 10.0 mi WSW 6.9 mph - N/A   Clear
6:15 PM 64.6 °F 47.3 °F 53% 30.08 in 10.0 mi SW 4.6 mph - N/A   Clear
6:34 PM 62.8 °F 47.3 °F 57% 30.08 in 10.0 mi Calm Calm - N/A   Clear
6:55 PM 61.7 °F 48.0 °F 61% 30.08 in 10.0 mi Calm Calm - N/A   Clear
7:15 PM 58.3 °F 50.0 °F 74% 30.09 in 10.0 mi Calm Calm - N/A   Clear
7:34 PM 56.3 °F 50.4 °F 80% 30.09 in 10.0 mi Calm Calm - N/A   Clear
7:55 PM 55.2 °F 50.4 °F 84% 30.09 in 10.0 mi SSW 3.5 mph - N/A   Clear
8:14 PM 55.8 °F 50.9 °F 84% 30.09 in 10.0 mi Calm Calm - N/A   Clear
8:34 PM 55.2 °F 50.9 °F 85% 30.10 in 10.0 mi Calm Calm - N/A   Clear
8:55 PM 54.1 °F 50.7 °F 88% 30.10 in 10.0 mi Calm Calm - N/A   Clear
9:14 PM 54.5 °F 51.1 °F 88% 30.09 in 10.0 mi Calm Calm - N/A   Clear
9:34 PM 54.1 °F 50.0 °F 86% 30.09 in 10.0 mi Calm Calm - N/A   Clear
9:55 PM 53.1 °F 49.6 °F 88% 30.10 in 10.0 mi Calm Calm - N/A   Clear
10:14 PM 54.0 °F 50.0 °F 86% 30.10 in 10.0 mi Calm Calm - N/A   Clear
10:34 PM 53.1 °F 50.0 °F 89% 30.10 in 10.0 mi Calm Calm - N/A   Clear
10:55 PM 52.7 °F 50.0 °F 91% 30.10 in 10.0 mi SE 3.5 mph - N/A   Clear
11:14 PM 53.4 °F 49.8 °F 88% 30.10 in 10.0 mi SE 3.5 mph - N/A   Clear
11:35 PM 53.4 °F 49.1 °F 85% 30.10 in 10.0 mi SE 3.5 mph - N/A   Clear
11:55 PM 53.6 °F 48.7 °F 84% 30.10 in 10.0 mi SE 4.6 mph - N/A   Clear